Aegean Viii — SXKO — position and weather

sailwx.info

Track history (hours):
 
Tides and Currents Weather Stations Pressure Air Temp Water Temp Dewpoint Dewpoint Depression Visibility Wind Speed Wind Dir Waves Ship Positions

Aegean Viii

Last reported at 2015-Sep-03 06:33 UTC. Time now 2015-Sep-03 06:51 UTC.
Position N 37°58' E 023°37'.

Length 75 m; draft 4.5 m.

Type: Tanker. MMSI: 240732000.

Date/timePositionNaut miles runAvg speedWind from/ knotsBaromVisibWave heightAir tempDewpointWater temp
2015-Sep-03 06:33N 37°58' E 023°37'0 0.3
2015-Sep-03 05:33N 37°57' E 023°36'5 4.7
2015-Sep-03 04:33N 38°01' E 023°32'1 1.4
2015-Sep-03 03:33N 38°02' E 023°32'0 0.0
2015-Sep-03 02:33N 38°02' E 023°32'0 0.0
2015-Sep-02 16:33N 38°02' E 023°32'0 0.0
2015-Sep-02 15:32N 38°02' E 023°32'3 0.7
2015-Sep-02 11:03N 38°02' E 023°36'0 0.0
2015-Sep-02 10:19N 38°02' E 023°36'0 0.0
2015-Sep-02 09:12N 38°02' E 023°36'0 0.0
2015-Sep-02 08:32N 38°02' E 023°36'0 0.0
2015-Sep-02 07:33N 38°02' E 023°36'0 0.0
2015-Sep-02 06:33N 38°02' E 023°36'1 0.7
2015-Sep-02 05:33N 38°02' E 023°35'0 0.0
2015-Sep-02 04:33N 38°02' E 023°35'2 2.3
2015-Sep-02 03:33N 38°02' E 023°32'0 0.0
2015-Sep-02 02:34N 38°02' E 023°32'0 0.0
2015-Sep-01 10:33N 38°02' E 023°32'2 2.0
2015-Sep-01 09:33N 38°00' E 023°33'6 5.6
2015-Sep-01 08:33N 37°56' E 023°38'0 0.0
2015-Sep-01 07:33N 37°56' E 023°38'1 0.5
2015-Sep-01 05:34N 37°56' E 023°37'7 6.8
2015-Sep-01 04:33N 38°02' E 023°32'0 0.0
2015-Aug-31 11:27N 38°02' E 023°32'0 0.0
2015-Aug-31 10:33N 38°02' E 023°32'0 0.0
2015-Aug-31 09:33N 38°02' E 023°32'1 1.0
2015-Aug-31 08:33N 38°02' E 023°31'0 0.0
2015-Aug-31 07:33N 38°02' E 023°31'0 0.0
2015-Aug-31 06:33N 38°02' E 023°31'0 0.0
2015-Aug-31 05:33N 38°02' E 023°31'0 0.0
2015-Aug-31 04:34N 38°02' E 023°31'1 1.0
2015-Aug-31 03:34N 38°02' E 023°32'0 0.0
2015-Aug-31 02:33N 38°02' E 023°32'0 0.0
2015-Aug-29 10:25N 38°02' E 023°32'0 0.0
2015-Aug-29 09:33N 38°02' E 023°32'0 0.0
2015-Aug-29 08:33N 38°02' E 023°32'0 0.0
2015-Aug-29 07:33N 38°02' E 023°32'0 0.0
2015-Aug-29 06:33N 38°02' E 023°32'0 0.0
2015-Aug-29 05:33N 38°02' E 023°32'0 0.0
2015-Aug-28 11:29N 38°02' E 023°32'0 0.0
2015-Aug-28 10:33N 38°02' E 023°32'0 0.0
2015-Aug-28 09:33N 38°02' E 023°32'0 0.0
2015-Aug-28 08:33N 38°02' E 023°32'0 0.0
2015-Aug-28 07:33N 38°02' E 023°32'0 0.0
2015-Aug-28 06:33N 38°02' E 023°32'0 0.0
2015-Aug-28 05:33N 38°02' E 023°32'0 0.0
2015-Aug-27 14:33N 38°02' E 023°32'5 5.2
2015-Aug-27 13:33N 37°57' E 023°34'1 1.5
2015-Aug-27 12:33N 37°57' E 023°36'0 0.0
2015-Aug-27 11:33N 37°57' E 023°36'0 0.0
2015-Aug-27 10:34N 37°57' E 023°36'1 0.6
2015-Aug-27 09:33N 37°58' E 023°36'0 0.0
2015-Aug-27 08:33N 37°58' E 023°36'0 0.0
2015-Aug-27 07:33N 37°58' E 023°36'0 0.0
2015-Aug-27 06:33N 37°58' E 023°36'0 0.1
2015-Aug-27 05:33N 37°57' E 023°36'4 4.2
2015-Aug-27 04:33N 38°00' E 023°33'2 2.0
2015-Aug-27 03:33N 38°02' E 023°32'0 0.0
2015-Aug-26 09:07N 38°02' E 023°32'0 0.0
2015-Aug-26 08:33N 38°02' E 023°32'0 0.2
2015-Aug-26 05:32N 38°02' E 023°32'0 0.4
2015-Aug-26 04:33N 38°02' E 023°32'0 0.1
2015-Aug-26 03:32N 38°02' E 023°32'0 0.0
2015-Aug-26 02:33N 38°02' E 023°32'0 0.0
2015-Aug-26 01:33N 38°02' E 023°32'0 0.0
2015-Aug-26 00:33N 38°02' E 023°32'0 0.0
2015-Aug-25 23:30N 38°02' E 023°32'0 0.0
2015-Aug-25 22:32N 38°02' E 023°32'0 0.0
2015-Aug-25 21:31N 38°02' E 023°32'2 2.4
2015-Aug-25 20:33N 38°02' E 023°35'1 0.7
2015-Aug-25 19:33N 38°02' E 023°36'0 0.1
2015-Aug-25 18:33N 38°02' E 023°36'0 0.0
2015-Aug-25 17:33N 38°02' E 023°36'0 0.0
2015-Aug-25 16:34N 38°02' E 023°36'0 0.0
2015-Aug-25 15:33N 38°02' E 023°36'0 0.0
2015-Aug-25 14:34N 38°02' E 023°36'0 0.0
2015-Aug-25 13:33N 38°02' E 023°36'3 2.9
2015-Aug-25 12:33N 38°02' E 023°32'2 1.9
2015-Aug-25 11:33N 38°00' E 023°33'7 7.4
2015-Aug-25 10:34N 37°53' E 023°31'0 0.2
2015-Aug-25 09:33N 37°53' E 023°31'0 0.1
2015-Aug-25 08:33N 37°53' E 023°31'0 0.0
2015-Aug-25 07:33N 37°53' E 023°31'0 0.0
2015-Aug-25 06:34N 37°53' E 023°31'3 2.9
2015-Aug-25 05:33N 37°55' E 023°33'5 4.9
2015-Aug-25 04:34N 37°60' E 023°33'2 2.1
2015-Aug-25 03:33N 38°02' E 023°35'0 0.0
2015-Aug-25 02:34N 38°02' E 023°35'1 0.8
2015-Aug-25 01:32N 38°02' E 023°36'0 0.1
2015-Aug-25 00:33N 38°02' E 023°36'0 0.0
2015-Aug-24 23:33N 38°02' E 023°36'0 0.0
2015-Aug-24 22:33N 38°02' E 023°36'0 0.0
2015-Aug-24 21:33N 38°02' E 023°36'0 0.0
2015-Aug-24 20:33N 38°02' E 023°36'1 0.6
2015-Aug-24 19:33N 38°02' E 023°35'0 0.0
2015-Aug-24 18:33N 38°02' E 023°35'0 0.0
2015-Aug-24 17:29N 38°02' E 023°35'0 0.0
2015-Aug-24 16:33N 38°02' E 023°35'0 0.0
2015-Aug-24 15:33N 38°02' E 023°35'0 0.0
2015-Aug-24 14:33N 38°02' E 023°35'0 0.0
2015-Aug-24 13:33N 38°02' E 023°35'0 0.0
2015-Aug-24 12:33N 38°02' E 023°35'0 0.0
2015-Aug-24 11:33N 38°02' E 023°35'2 1.7
2015-Aug-24 10:33N 38°02' E 023°33'1 0.8
2015-Aug-24 09:33N 38°02' E 023°32'0 0.0
2015-Aug-24 08:33N 38°02' E 023°32'0 0.0
2015-Aug-24 07:33N 38°02' E 023°32'  
Track history (hours):
 
Tides and Currents Weather Stations Pressure Air Temp Water Temp Dewpoint Dewpoint Depression Visibility Wind Speed Wind Dir Waves Ship Positions

Aegean Viii

Last reported at 2015-Sep-03 06:33 UTC. Time now 2015-Sep-03 06:51 UTC.
Position N 37°58' E 023°37'.

Length 75 m; draft 4.5 m.

Type: Tanker. MMSI: 240732000.

Date/timePositionNaut miles runAvg speedWind from/ knotsBaromVisibWave heightAir tempDewpointWater temp
2015-Sep-03 06:33N 37°58' E 023°37'0 0.3
2015-Sep-03 05:33N 37°57' E 023°36'5 4.7
2015-Sep-03 04:33N 38°01' E 023°32'1 1.4
2015-Sep-03 03:33N 38°02' E 023°32'0 0.0
2015-Sep-03 02:33N 38°02' E 023°32'0 0.0
2015-Sep-02 16:33N 38°02' E 023°32'0 0.0
2015-Sep-02 15:32N 38°02' E 023°32'3 0.7
2015-Sep-02 11:03N 38°02' E 023°36'0 0.0
2015-Sep-02 10:19N 38°02' E 023°36'0 0.0
2015-Sep-02 09:12N 38°02' E 023°36'0 0.0
2015-Sep-02 08:32N 38°02' E 023°36'0 0.0
2015-Sep-02 07:33N 38°02' E 023°36'0 0.0
2015-Sep-02 06:33N 38°02' E 023°36'1 0.7
2015-Sep-02 05:33N 38°02' E 023°35'0 0.0
2015-Sep-02 04:33N 38°02' E 023°35'2 2.3
2015-Sep-02 03:33N 38°02' E 023°32'0 0.0
2015-Sep-02 02:34N 38°02' E 023°32'0 0.0
2015-Sep-01 10:33N 38°02' E 023°32'2 2.0
2015-Sep-01 09:33N 38°00' E 023°33'6 5.6
2015-Sep-01 08:33N 37°56' E 023°38'0 0.0
2015-Sep-01 07:33N 37°56' E 023°38'1 0.5
2015-Sep-01 05:34N 37°56' E 023°37'7 6.8
2015-Sep-01 04:33N 38°02' E 023°32'0 0.0
2015-Aug-31 11:27N 38°02' E 023°32'0 0.0
2015-Aug-31 10:33N 38°02' E 023°32'0 0.0
2015-Aug-31 09:33N 38°02' E 023°32'1 1.0
2015-Aug-31 08:33N 38°02' E 023°31'0 0.0
2015-Aug-31 07:33N 38°02' E 023°31'0 0.0
2015-Aug-31 06:33N 38°02' E 023°31'0 0.0
2015-Aug-31 05:33N 38°02' E 023°31'0 0.0
2015-Aug-31 04:34N 38°02' E 023°31'1 1.0
2015-Aug-31 03:34N 38°02' E 023°32'0 0.0
2015-Aug-31 02:33N 38°02' E 023°32'0 0.0
2015-Aug-29 10:25N 38°02' E 023°32'0 0.0
2015-Aug-29 09:33N 38°02' E 023°32'0 0.0
2015-Aug-29 08:33N 38°02' E 023°32'0 0.0
2015-Aug-29 07:33N 38°02' E 023°32'0 0.0
2015-Aug-29 06:33N 38°02' E 023°32'0 0.0
2015-Aug-29 05:33N 38°02' E 023°32'0 0.0
2015-Aug-28 11:29N 38°02' E 023°32'0 0.0
2015-Aug-28 10:33N 38°02' E 023°32'0 0.0
2015-Aug-28 09:33N 38°02' E 023°32'0 0.0
2015-Aug-28 08:33N 38°02' E 023°32'0 0.0
2015-Aug-28 07:33N 38°02' E 023°32'0 0.0
2015-Aug-28 06:33N 38°02' E 023°32'0 0.0
2015-Aug-28 05:33N 38°02' E 023°32'0 0.0
2015-Aug-27 14:33N 38°02' E 023°32'5 5.2
2015-Aug-27 13:33N 37°57' E 023°34'1 1.5
2015-Aug-27 12:33N 37°57' E 023°36'0 0.0
2015-Aug-27 11:33N 37°57' E 023°36'0 0.0
2015-Aug-27 10:34N 37°57' E 023°36'1 0.6
2015-Aug-27 09:33N 37°58' E 023°36'0 0.0
2015-Aug-27 08:33N 37°58' E 023°36'0 0.0
2015-Aug-27 07:33N 37°58' E 023°36'0 0.0
2015-Aug-27 06:33N 37°58' E 023°36'0 0.1
2015-Aug-27 05:33N 37°57' E 023°36'4 4.2
2015-Aug-27 04:33N 38°00' E 023°33'2 2.0
2015-Aug-27 03:33N 38°02' E 023°32'0 0.0
2015-Aug-26 09:07N 38°02' E 023°32'0 0.0
2015-Aug-26 08:33N 38°02' E 023°32'0 0.2
2015-Aug-26 05:32N 38°02' E 023°32'0 0.4
2015-Aug-26 04:33N 38°02' E 023°32'0 0.1
2015-Aug-26 03:32N 38°02' E 023°32'0 0.0
2015-Aug-26 02:33N 38°02' E 023°32'0 0.0
2015-Aug-26 01:33N 38°02' E 023°32'0 0.0
2015-Aug-26 00:33N 38°02' E 023°32'0 0.0
2015-Aug-25 23:30N 38°02' E 023°32'0 0.0
2015-Aug-25 22:32N 38°02' E 023°32'0 0.0
2015-Aug-25 21:31N 38°02' E 023°32'2 2.4
2015-Aug-25 20:33N 38°02' E 023°35'1 0.7
2015-Aug-25 19:33N 38°02' E 023°36'0 0.1
2015-Aug-25 18:33N 38°02' E 023°36'0 0.0
2015-Aug-25 17:33N 38°02' E 023°36'0 0.0
2015-Aug-25 16:34N 38°02' E 023°36'0 0.0
2015-Aug-25 15:33N 38°02' E 023°36'0 0.0
2015-Aug-25 14:34N 38°02' E 023°36'0 0.0
2015-Aug-25 13:33N 38°02' E 023°36'3 2.9
2015-Aug-25 12:33N 38°02' E 023°32'2 1.9
2015-Aug-25 11:33N 38°00' E 023°33'7 7.4
2015-Aug-25 10:34N 37°53' E 023°31'0 0.2
2015-Aug-25 09:33N 37°53' E 023°31'0 0.1
2015-Aug-25 08:33N 37°53' E 023°31'0 0.0
2015-Aug-25 07:33N 37°53' E 023°31'0 0.0
2015-Aug-25 06:34N 37°53' E 023°31'3 2.9
2015-Aug-25 05:33N 37°55' E 023°33'5 4.9
2015-Aug-25 04:34N 37°60' E 023°33'2 2.1
2015-Aug-25 03:33N 38°02' E 023°35'0 0.0
2015-Aug-25 02:34N 38°02' E 023°35'1 0.8
2015-Aug-25 01:32N 38°02' E 023°36'0 0.1
2015-Aug-25 00:33N 38°02' E 023°36'0 0.0
2015-Aug-24 23:33N 38°02' E 023°36'0 0.0
2015-Aug-24 22:33N 38°02' E 023°36'0 0.0
2015-Aug-24 21:33N 38°02' E 023°36'0 0.0
2015-Aug-24 20:33N 38°02' E 023°36'1 0.6
2015-Aug-24 19:33N 38°02' E 023°35'0 0.0
2015-Aug-24 18:33N 38°02' E 023°35'0 0.0
2015-Aug-24 17:29N 38°02' E 023°35'0 0.0
2015-Aug-24 16:33N 38°02' E 023°35'0 0.0
2015-Aug-24 15:33N 38°02' E 023°35'0 0.0
2015-Aug-24 14:33N 38°02' E 023°35'0 0.0
2015-Aug-24 13:33N 38°02' E 023°35'0 0.0
2015-Aug-24 12:33N 38°02' E 023°35'0 0.0
2015-Aug-24 11:33N 38°02' E 023°35'2 1.7
2015-Aug-24 10:33N 38°02' E 023°33'1 0.8
2015-Aug-24 09:33N 38°02' E 023°32'0 0.0
2015-Aug-24 08:33N 38°02' E 023°32'0 0.0
2015-Aug-24 07:33N 38°02' E 023°32'  

Dump ship's entire track history